OIAG  Aghajari Airport

Add Bookmark

Iran

Status
Operational
Latitude Longitude
30° 44' 39" N 49° 40' 37" E
30.744400 49.677200
Local (DST + 5) UTC (GMT + 4)
Jul 23, 2014 06:18 Jul 23, 2014 13:48
Sunrise-Sunset Local UTC
Begin Civil Twilight 05:55 01:25
Sunrise 06:22 01:52
Sunset 08:13 15:43
End Civil Twilight 08:40 16:10

Current Weather

METAR Observed VFR
OIAG 231300Z 31008KT CAVOK 45/M01 Q0995 Wed, Jul 23, 2014 @ 13:00 UTC
(48 Minutes ago)
Visual Flight Rules

Decoded METAR

Wind Visibility Clouds Conditions
310° at 8 knots (15 kph) 10 km or more
  • Clear skies
  • No significant weather
Temperatures Readings Precipitation
Current Temp 45°C (113°F)
Dewpoint -1°C (30°F)
Humidity 6%
Altimeter 29.38"Hg
Sea Level Pressure 995mb
Field Elevation 95.14'
None Recorded

Additional weather within a 92.6km radius of OIAG

Map ICAO Location METAR
OIAM 54.4km W (248°) 48 mins ago

24 Hour Weather History

Loading
-

24 Hour Weather Graphs

Loading
-

CheckWX.com is intended as a tool to help pilots better visualize weather data. It is not intended as a substitute for an official weather briefing obtained from a Flight Service Station. CheckWX.com does not meet the FAA requirements for an official pre-flight weather briefing. Therefore, it's important that pilots still call and obtain an official FSS pre-flight weather briefing.